Time;durP1;ratioP1;P1;durP2;ratioP2;P2;SDS_P1;SDS_P2;PMS_P1;PMS_P2;Temp;Humidity;BMP_temperature;BMP_pressure;BME280_temperature;BME280_humidity;BME280_pressure;Samples;Min_cycle;Max_cycle;Signal;HPM_P1;HPM_P2
2022/05/01 00:02:12;;;;;;;3.83;3.53;;;19.20;46.80;20.20;101539.00;;;;5007625;28;20601;-48
2022/05/01 00:04:38;;;;;;;3.90;3.60;;;19.20;46.90;20.20;101532.00;;;;5007306;28;20192;-48
2022/05/01 00:07:04;;;;;;;4.13;3.80;;;19.20;46.90;20.20;101532.00;;;;5007072;28;20234;-49
2022/05/01 00:09:29;;;;;;;3.80;3.50;;;19.10;46.80;20.20;101531.00;;;;5007307;28;20757;-48
2022/05/01 00:11:55;;;;;;;4.27;3.87;;;19.20;46.90;20.20;101545.00;;;;5006736;28;20167;-47
2022/05/01 00:14:21;;;;;;;4.13;3.80;;;19.10;46.80;20.10;101536.00;;;;5007505;28;20335;-49
2022/05/01 00:16:49;;;;;;;3.60;3.30;;;19.10;46.80;20.10;101533.00;;;;5005938;28;20172;-47
2022/05/01 00:19:15;;;;;;;4.13;3.73;;;19.10;46.80;20.10;101533.00;;;;5007463;28;20255;-47
2022/05/01 00:21:41;;;;;;;3.90;3.60;;;19.00;46.80;20.10;101534.00;;;;5007038;28;20212;-47
2022/05/01 00:24:07;;;;;;;3.83;3.50;;;19.00;46.80;20.10;101526.00;;;;5007368;28;20191;-47
2022/05/01 00:26:32;;;;;;;4.30;3.90;;;19.00;46.80;20.00;101529.00;;;;5007554;28;20664;-48
2022/05/01 00:29:00;;;;;;;3.90;3.60;;;19.00;46.80;20.00;101528.00;;;;5007196;28;20195;-47
2022/05/01 00:31:26;;;;;;;3.97;3.67;;;19.00;46.70;20.00;101532.00;;;;5007475;28;20171;-48
2022/05/01 00:36:36;;;;;;;5.00;3.77;;;19.00;46.80;20.00;101521.00;;;;5006979;28;20155;-47
2022/05/01 00:39:04;;;;;;;3.87;3.57;;;19.00;46.80;20.00;101524.00;;;;5007121;28;20171;-49
2022/05/01 00:41:37;;;;;;;4.20;3.90;;;19.00;46.80;19.90;101515.00;;;;5006951;28;20204;-49
2022/05/01 00:44:34;;;;;;;4.17;3.80;;;19.00;46.80;19.90;101521.00;;;;5005482;28;20206;-46
2022/05/01 00:46:59;;;;;;;3.77;3.47;;;19.00;46.80;19.90;101518.00;;;;5005167;28;20192;-47
2022/05/01 00:49:27;;;;;;;3.90;3.60;;;18.90;46.70;19.90;101532.00;;;;5006980;28;20199;-48
2022/05/01 00:52:00;;;;;;;3.90;3.60;;;18.90;46.70;19.90;101517.00;;;;5009764;28;20265;-48
2022/05/01 00:54:28;;;;;;;3.87;3.50;;;18.90;46.80;19.80;101528.00;;;;5017351;28;20190;-49
2022/05/01 00:56:57;;;;;;;3.87;3.53;;;18.90;46.80;19.80;101511.00;;;;5018409;28;20659;-51
2022/05/01 00:59:23;;;;;;;4.07;3.77;;;18.90;46.70;19.80;101511.00;;;;5019938;28;20229;-50
2022/05/01 01:01:50;;;;;;;4.00;3.70;;;18.80;46.60;19.80;101511.00;;;;5013685;28;20194;-48
2022/05/01 01:04:16;;;;;;;4.17;3.87;;;18.80;46.60;19.80;101522.00;;;;5010045;28;20203;-48
2022/05/01 01:06:42;;;;;;;3.70;3.40;;;18.90;46.80;19.80;101516.00;;;;5007332;28;20205;-48
2022/05/01 01:09:08;;;;;;;3.93;3.63;;;18.80;46.70;19.80;101522.00;;;;5006252;28;20299;-47
2022/05/01 01:11:33;;;;;;;4.17;3.87;;;18.80;46.70;19.70;101521.00;;;;5006191;28;20160;-48
2022/05/01 01:14:00;;;;;;;4.03;3.63;;;18.80;46.70;19.70;101520.00;;;;5005790;28;20245;-47
2022/05/01 01:16:25;;;;;;;3.80;3.50;;;18.70;46.60;19.70;101516.00;;;;5005876;28;20187;-48
2022/05/01 01:18:51;;;;;;;4.60;4.20;;;18.70;46.70;19.70;101521.00;;;;5005188;28;20174;-47
2022/05/01 01:21:18;;;;;;;4.03;3.73;;;18.70;46.70;19.70;101524.00;;;;5006111;28;20808;-48
2022/05/01 01:23:44;;;;;;;4.20;3.80;;;18.70;46.60;19.70;101522.00;;;;5006082;28;20283;-47
2022/05/01 01:26:10;;;;;;;4.33;3.80;;;18.70;46.60;19.70;101515.00;;;;5006313;28;20262;-47
2022/05/01 01:28:38;;;;;;;4.17;3.87;;;18.70;46.60;19.60;101512.00;;;;4988358;28;20779;-47
2022/05/01 01:33:53;;;;;;;4.10;3.80;;;18.70;46.60;19.60;101517.00;;;;5011580;28;20936;-49
2022/05/01 01:36:21;;;;;;;3.93;3.63;;;18.70;46.60;19.60;101516.00;;;;5012307;28;20159;-48
2022/05/01 01:38:47;;;;;;;4.07;3.73;;;18.60;46.50;19.60;101514.00;;;;5012201;28;20191;-47
2022/05/01 01:41:13;;;;;;;5.10;3.80;;;18.70;46.60;19.60;101512.00;;;;5012167;28;20804;-49
2022/05/01 01:43:39;;;;;;;4.30;3.90;;;18.60;46.60;19.50;101513.00;;;;4994388;28;20199;-49
2022/05/01 01:46:05;;;;;;;4.00;3.70;;;18.60;46.60;19.50;101522.00;;;;4994217;28;20194;-47
2022/05/01 01:48:31;;;;;;;3.93;3.63;;;18.60;46.40;19.50;101526.00;;;;5012655;28;20207;-48
2022/05/01 01:51:02;;;;;;;4.27;3.87;;;18.60;46.60;19.50;101525.00;;;;5012198;28;20206;-48
2022/05/01 01:53:29;;;;;;;4.17;3.80;;;18.60;46.50;19.50;101524.00;;;;5012350;28;20775;-48
2022/05/01 01:55:57;;;;;;;3.90;3.60;;;18.50;46.40;19.50;101528.00;;;;5011746;28;20578;-47
2022/05/01 01:58:23;;;;;;;4.00;3.70;;;18.50;46.50;19.40;101532.00;;;;5011794;28;20708;-48
2022/05/01 02:00:48;;;;;;;3.87;3.57;;;18.50;46.40;19.40;101525.00;;;;5011909;28;20221;-48
2022/05/01 02:03:15;;;;;;;3.80;3.50;;;18.50;46.40;19.40;101531.00;;;;5011647;28;20618;-48
2022/05/01 02:05:41;;;;;;;4.03;3.70;;;18.50;46.40;19.40;101532.00;;;;5011711;28;20566;-47
2022/05/01 02:08:07;;;;;;;3.57;3.37;;;18.50;46.40;19.40;101529.00;;;;5011222;28;20205;-48
2022/05/01 02:10:33;;;;;;;3.90;3.60;;;18.50;46.40;19.40;101536.00;;;;5011971;28;20190;-47
2022/05/01 02:13:01;;;;;;;3.90;3.60;;;18.50;46.40;19.40;101524.00;;;;5011908;28;20198;-48
2022/05/01 02:15:30;;;;;;;3.80;3.50;;;18.40;46.30;19.30;101529.00;;;;5012166;28;20171;-47
2022/05/01 02:17:56;;;;;;;4.03;3.73;;;18.50;46.40;19.30;101522.00;;;;5011305;28;20178;-47
2022/05/01 02:20:22;;;;;;;3.90;3.60;;;18.40;46.30;19.30;101517.00;;;;5011315;28;20166;-48
2022/05/01 02:22:47;;;;;;;3.93;3.40;;;18.40;46.30;19.30;101525.00;;;;5011895;28;20624;-47
2022/05/01 02:25:13;;;;;;;5.67;3.83;;;18.40;46.30;19.30;101519.00;;;;5011697;28;20189;-47
2022/05/01 02:27:39;;;;;;;4.03;3.73;;;18.30;46.20;19.10;101525.00;;;;5011654;28;20684;-47
2022/05/01 02:30:07;;;;;;;4.43;3.90;;;18.30;46.20;19.20;101510.00;;;;5014598;28;20181;-47
2022/05/01 02:32:35;;;;;;;4.27;3.97;;;18.30;46.20;19.20;101522.00;;;;5015654;28;20176;-46
2022/05/01 02:35:01;;;;;;;3.90;3.60;;;18.30;46.20;19.20;101526.00;;;;5011631;28;20181;-48
2022/05/01 02:37:27;;;;;;;3.90;3.60;;;18.30;46.20;19.20;101513.00;;;;5011635;28;20182;-47
2022/05/01 02:39:52;;;;;;;4.30;3.90;;;18.30;46.20;19.10;101523.00;;;;5011875;28;20828;-47
2022/05/01 02:42:19;;;;;;;4.43;4.03;;;18.30;46.20;19.10;101520.00;;;;5011830;28;20217;-48
2022/05/01 02:44:45;;;;;;;4.33;4.03;;;18.30;46.80;19.10;101518.00;;;;5008929;28;20198;-48
2022/05/01 02:47:11;;;;;;;4.30;3.90;;;18.30;46.20;19.10;101513.00;;;;5008260;28;20175;-47
2022/05/01 02:49:37;;;;;;;4.57;3.60;;;18.20;46.10;19.10;101517.00;;;;5019199;28;20197;-47
2022/05/01 02:52:03;;;;;;;3.90;3.60;;;18.20;46.10;19.10;101510.00;;;;5020361;28;20174;-47
2022/05/01 02:54:29;;;;;;;4.13;3.83;;;18.20;46.10;19.10;101517.00;;;;5008989;28;20198;-47
2022/05/01 02:56:54;;;;;;;4.30;3.83;;;18.20;46.10;19.00;101510.00;;;;5008915;28;20176;-47
2022/05/01 02:59:20;;;;;;;4.13;3.80;;;18.10;46.00;19.00;101482.00;;;;5007857;28;20544;-47
2022/05/01 03:01:46;;;;;;;4.20;3.80;;;18.10;46.00;19.00;101500.00;;;;5007515;28;20187;-47
2022/05/01 03:04:12;;;;;;;4.37;3.97;;;18.10;46.10;19.00;101499.00;;;;5008311;28;20581;-48
2022/05/01 03:06:37;;;;;;;4.10;3.80;;;18.10;46.10;19.00;101506.00;;;;5008853;28;20183;-48
2022/05/01 03:09:04;;;;;;;4.17;3.77;;;18.10;46.00;18.90;101497.00;;;;5009282;28;20980;-47
2022/05/01 03:11:32;;;;;;;4.30;3.90;;;18.10;46.10;18.90;101502.00;;;;5008415;28;20186;-48
2022/05/01 03:13:58;;;;;;;4.10;3.80;;;18.10;46.10;18.90;101499.00;;;;5008209;28;20725;-47
2022/05/01 03:16:24;;;;;;;4.43;4.03;;;18.00;45.90;18.90;101502.00;;;;5008274;28;20182;-47
2022/05/01 03:24:18;;;;;;;4.50;4.10;;;18.00;45.90;18.80;101494.00;;;;5007570;28;20594;-47
2022/05/01 03:26:47;;;;;;;4.73;4.10;;;17.90;45.90;18.80;101499.00;;;;5008057;28;20248;-47
2022/05/01 03:29:16;;;;;;;4.20;3.90;;;18.00;46.00;18.80;101493.00;;;;5007861;28;20445;-47
2022/05/01 03:31:42;;;;;;;4.07;3.70;;;17.90;45.90;18.80;101495.00;;;;5008012;28;20176;-47
2022/05/01 03:34:08;;;;;;;4.07;3.77;;;18.00;46.00;18.80;101493.00;;;;5007611;28;20204;-47
2022/05/01 03:36:33;;;;;;;4.43;4.03;;;17.90;45.80;18.70;101492.00;;;;5014088;28;20180;-47
2022/05/01 03:38:59;;;;;;;5.80;3.93;;;17.90;46.10;18.70;101494.00;;;;5013955;28;20184;-47
2022/05/01 03:41:26;;;;;;;4.50;3.87;;;17.80;46.10;18.70;101491.00;;;;4998624;28;20196;-46
2022/05/01 03:43:52;;;;;;;3.93;3.57;;;17.90;46.10;18.70;101497.00;;;;4992826;28;20583;-47
2022/05/01 03:46:20;;;;;;;5.90;3.70;;;17.90;46.20;18.70;101493.00;;;;4987398;28;20256;-47
2022/05/01 03:48:46;;;;;;;4.00;3.70;;;17.80;46.10;18.70;101493.00;;;;4987466;28;20205;-47
2022/05/01 03:51:12;;;;;;;3.50;3.20;;;17.80;46.20;18.70;101488.00;;;;4987898;28;20169;-47
2022/05/01 03:53:38;;;;;;;3.87;3.50;;;17.80;46.20;18.60;101488.00;;;;4987440;28;20189;-47
2022/05/01 03:56:05;;;;;;;3.90;3.60;;;17.80;46.20;18.70;101476.00;;;;4986599;28;20672;-46
2022/05/01 03:58:31;;;;;;;3.90;3.60;;;17.80;46.20;18.60;101491.00;;;;4986270;28;20160;-47
2022/05/01 04:00:57;;;;;;;4.20;3.43;;;17.80;46.20;18.60;101497.00;;;;4987785;28;20188;-46
2022/05/01 04:03:23;;;;;;;3.80;3.50;;;17.80;46.20;18.60;101489.00;;;;4999772;28;20196;-47
2022/05/01 04:05:49;;;;;;;5.17;3.67;;;17.80;46.20;18.60;101481.00;;;;4994877;28;20550;-47
2022/05/01 04:08:14;;;;;;;3.40;3.10;;;17.80;46.20;18.60;101490.00;;;;5001863;28;20653;-47
2022/05/01 04:10:44;;;;;;;3.57;3.27;;;17.70;46.10;18.60;101493.00;;;;5006468;28;20206;-47
2022/05/01 04:13:11;;;;;;;3.20;2.90;;;17.70;46.10;18.60;101445.00;;;;5006580;28;20207;-47
2022/05/01 04:15:37;;;;;;;3.63;3.33;;;17.70;46.10;18.60;101492.00;;;;5006758;28;20195;-46
2022/05/01 04:18:06;;;;;;;3.70;3.30;;;17.70;46.20;18.50;101485.00;;;;5006448;28;20520;-46
2022/05/01 04:20:32;;;;;;;3.30;3.00;;;17.70;46.30;18.50;101491.00;;;;5005574;28;20175;-47
2022/05/01 04:22:58;;;;;;;3.90;2.97;;;17.60;46.20;18.50;101494.00;;;;5007324;28;20235;-47
2022/05/01 04:25:26;;;;;;;3.50;3.20;;;17.60;46.30;18.50;101487.00;;;;5006137;28;20192;-46
2022/05/01 04:27:58;;;;;;;3.63;3.33;;;17.60;46.40;18.50;101494.00;;;;5006993;28;20478;-46
2022/05/01 04:30:26;;;;;;;4.40;3.13;;;17.60;46.40;18.50;101487.00;;;;5006317;28;20188;-46
2022/05/01 04:32:54;;;;;;;3.43;3.20;;;17.60;46.50;18.50;101486.00;;;;5008390;28;20179;-47
2022/05/01 04:35:31;;;;;;;4.03;3.20;;;17.60;46.50;18.50;101484.00;;;;5006472;28;20173;-47
2022/05/01 04:38:02;;;;;;;3.50;3.20;;;17.60;46.60;18.50;101486.00;;;;5005060;28;20609;-47
2022/05/01 04:40:29;;;;;;;3.20;3.00;;;17.60;46.60;18.50;101479.00;;;;5006211;28;20167;-46
2022/05/01 04:43:02;;;;;;;3.67;3.37;;;17.50;46.50;18.50;101477.00;;;;5010585;28;20164;-48
2022/05/01 04:45:30;;;;;;;4.07;3.13;;;17.50;46.60;18.50;101487.00;;;;5009357;28;20280;-47
2022/05/01 04:47:57;;;;;;;4.20;3.00;;;17.50;46.60;18.50;101480.00;;;;5006124;28;20697;-48
2022/05/01 04:50:22;;;;;;;5.37;3.20;;;17.50;46.60;18.40;101486.00;;;;5005891;28;20677;-46
2022/05/01 04:52:48;;;;;;;5.27;3.37;;;17.50;46.70;18.40;101484.00;;;;5006094;28;20166;-47
2022/05/01 04:55:14;;;;;;;4.50;3.30;;;17.50;46.70;18.40;101476.00;;;;5004913;28;20168;-47
2022/05/01 04:57:40;;;;;;;4.73;3.23;;;17.40;46.70;18.40;101478.00;;;;5005236;28;20174;-47
2022/05/01 05:00:07;;;;;;;3.53;3.23;;;17.40;46.80;18.40;101481.00;;;;5004042;28;20175;-47
2022/05/01 05:02:38;;;;;;;4.00;2.93;;;17.50;47.00;18.40;101478.00;;;;5005549;28;20187;-46
2022/05/01 05:05:06;;;;;;;5.80;3.27;;;17.50;46.90;18.40;101478.00;;;;5005718;28;20253;-48
2022/05/01 05:07:32;;;;;;;4.00;3.30;;;17.40;47.00;18.40;101487.00;;;;5005050;28;20237;-48
2022/05/01 05:09:58;;;;;;;4.67;3.10;;;17.40;47.00;18.40;101361.00;;;;5005452;28;20172;-47
2022/05/01 05:12:24;;;;;;;4.80;3.33;;;17.40;47.00;18.40;101492.00;;;;5005812;28;20550;-48
2022/05/01 05:14:52;;;;;;;7.63;3.17;;;17.40;47.00;18.40;101492.00;;;;5005039;28;20183;-47
2022/05/01 05:17:21;;;;;;;4.77;3.00;;;17.40;47.10;18.40;101491.00;;;;5015301;28;20180;-48
2022/05/01 05:19:47;;;;;;;4.80;3.03;;;17.40;47.00;18.30;101488.00;;;;5017094;28;20573;-47
2022/05/01 05:22:13;;;;;;;4.00;3.20;;;17.40;47.00;18.30;101489.00;;;;5006226;28;20177;-47
2022/05/01 05:24:38;;;;;;;4.63;2.77;;;17.30;47.10;18.30;101494.00;;;;5003902;28;20295;-47
2022/05/01 05:27:04;;;;;;;3.43;2.80;;;17.30;47.10;18.30;101491.00;;;;5005370;28;20172;-47
2022/05/01 05:29:30;;;;;;;3.27;2.93;;;17.30;47.10;18.30;101499.00;;;;5005876;28;20218;-47
2022/05/01 05:31:56;;;;;;;4.13;3.20;;;17.30;47.00;18.30;101506.00;;;;5005656;28;20803;-47
2022/05/01 05:34:22;;;;;;;3.00;2.80;;;17.30;47.10;18.30;101502.00;;;;5005292;28;20196;-47
2022/05/01 05:36:47;;;;;;;3.53;2.80;;;17.30;47.10;18.30;101502.00;;;;5005872;28;20177;-46
2022/05/01 05:39:13;;;;;;;4.57;3.30;;;17.30;47.10;18.30;101503.00;;;;5005954;28;20175;-47
2022/05/01 05:41:39;;;;;;;3.30;2.83;;;17.30;47.10;18.20;101507.00;;;;5005631;28;20779;-48
2022/05/01 05:44:05;;;;;;;3.20;2.90;;;17.20;47.10;18.20;101506.00;;;;5005308;28;20199;-50
2022/05/01 05:46:30;;;;;;;3.27;2.97;;;17.20;47.10;18.20;101513.00;;;;5005074;28;20174;-47
2022/05/01 05:48:57;;;;;;;3.37;3.07;;;17.20;47.20;18.20;101519.00;;;;5006013;28;20199;-47
2022/05/01 05:51:22;;;;;;;3.97;3.00;;;17.20;47.10;18.20;101517.00;;;;5004453;28;20266;-47
2022/05/01 05:53:51;;;;;;;3.40;3.10;;;17.20;47.10;18.20;101510.00;;;;5005778;28;20214;-47
2022/05/01 05:56:17;;;;;;;3.27;2.97;;;17.20;47.20;18.20;101520.00;;;;5005177;28;20237;-47
2022/05/01 05:58:43;;;;;;;3.67;2.90;;;17.20;47.20;18.20;101518.00;;;;5021065;28;20231;-47
2022/05/01 06:01:10;;;;;;;3.10;2.80;;;17.20;47.20;18.10;101516.00;;;;5015274;28;20211;-48
2022/05/01 06:03:36;;;;;;;3.20;3.00;;;17.10;47.10;18.10;101519.00;;;;5017867;28;20191;-48
2022/05/01 06:06:03;;;;;;;3.20;2.90;;;17.10;47.20;18.10;101522.00;;;;5018868;28;20172;-48
2022/05/01 06:08:28;;;;;;;3.70;3.07;;;17.10;47.90;18.10;101517.00;;;;5017377;28;20201;-48
2022/05/01 06:10:54;;;;;;;3.50;2.90;;;17.10;47.20;18.10;101509.00;;;;5014540;28;20206;-48
2022/05/01 06:13:20;;;;;;;3.40;2.50;;;17.10;47.30;18.10;101517.00;;;;5014708;28;20915;-47
2022/05/01 06:15:46;;;;;;;3.00;2.70;;;17.00;47.20;18.10;101526.00;;;;5005929;28;20157;-47
2022/05/01 06:18:12;;;;;;;3.03;2.73;;;17.10;47.30;18.10;101520.00;;;;5005810;28;20660;-47
2022/05/01 06:20:37;;;;;;;2.90;2.70;;;17.10;47.40;18.10;101521.00;;;;5026878;28;20187;-46
2022/05/01 06:23:04;;;;;;;3.23;3.00;;;17.10;47.40;17.80;101514.00;;;;5009020;28;20274;-46
2022/05/01 06:25:29;;;;;;;3.67;3.07;;;17.00;47.30;18.10;101522.00;;;;5008546;28;20697;-47
2022/05/01 06:27:55;;;;;;;3.10;2.83;;;17.10;47.40;18.10;101528.00;;;;5008056;28;20203;-45
2022/05/01 06:30:21;;;;;;;3.23;2.97;;;17.00;47.30;18.00;101516.00;;;;5008423;28;20168;-47
2022/05/01 06:32:47;;;;;;;3.40;3.10;;;17.00;47.40;18.00;101525.00;;;;5009276;28;20175;-47
2022/05/01 06:35:12;;;;;;;3.10;2.90;;;17.00;47.80;18.00;101522.00;;;;5013299;28;20518;-48
2022/05/01 06:37:38;;;;;;;2.97;2.77;;;17.00;47.60;18.00;101537.00;;;;4999403;28;20175;-48
2022/05/01 06:40:06;;;;;;;3.00;2.80;;;17.00;47.70;18.00;101528.00;;;;5008948;28;20211;-47
2022/05/01 06:42:32;;;;;;;3.00;2.80;;;17.00;47.70;18.00;101519.00;;;;5008448;28;20243;-46
2022/05/01 06:44:58;;;;;;;3.07;2.87;;;17.00;47.70;18.00;101522.00;;;;5008091;28;20215;-46
2022/05/01 06:47:24;;;;;;;2.87;2.67;;;17.00;47.70;18.00;101526.00;;;;5008116;28;20652;-47
2022/05/01 06:49:50;;;;;;;3.00;2.80;;;17.00;47.70;18.00;101523.00;;;;5006981;28;20226;-46
2022/05/01 06:52:23;;;;;;;3.30;2.87;;;17.00;47.70;18.00;101526.00;;;;5008150;28;20176;-48
2022/05/01 06:54:52;;;;;;;3.00;2.80;;;16.90;47.60;18.00;101526.00;;;;5007413;28;20203;-46
2022/05/01 06:57:18;;;;;;;3.00;2.80;;;16.90;47.70;17.90;101520.00;;;;5007839;28;20205;-46
2022/05/01 06:59:44;;;;;;;3.03;2.83;;;16.90;47.60;17.90;101525.00;;;;5008126;28;20184;-47
2022/05/01 07:02:09;;;;;;;3.40;2.70;;;16.90;47.60;17.90;101524.00;;;;5008002;28;20191;-47
2022/05/01 07:04:35;;;;;;;2.93;2.73;;;16.90;47.60;17.90;101521.00;;;;5007981;28;20722;-47
2022/05/01 07:07:02;;;;;;;3.00;2.80;;;16.90;47.70;17.90;101533.00;;;;5007627;28;20551;-47
2022/05/01 07:09:27;;;;;;;3.37;2.70;;;16.90;47.70;17.80;101531.00;;;;5008030;28;20215;-47
2022/05/01 07:11:54;;;;;;;2.83;2.63;;;16.90;47.70;17.90;101519.00;;;;5007493;28;20168;-47
2022/05/01 07:14:20;;;;;;;3.10;2.90;;;16.90;47.70;17.90;101534.00;;;;5007301;28;20202;-47
2022/05/01 07:16:47;;;;;;;3.63;2.70;;;16.90;47.70;17.90;101524.00;;;;5007471;28;20262;-47
2022/05/01 07:19:13;;;;;;;5.97;3.00;;;16.90;48.10;17.90;101529.00;;;;5006734;28;20182;-47
2022/05/01 07:21:39;;;;;;;2.80;2.60;;;16.90;48.00;17.90;101530.00;;;;5007111;28;20175;-48
2022/05/01 07:24:05;;;;;;;3.50;2.77;;;16.90;48.00;17.90;101521.00;;;;5006641;28;20207;-48
2022/05/01 07:26:33;;;;;;;4.17;3.07;;;16.90;48.00;17.80;101525.00;;;;5007307;28;20277;-48
2022/05/01 07:29:02;;;;;;;3.40;2.80;;;16.90;48.10;17.80;101528.00;;;;5008406;28;20715;-47
2022/05/01 07:31:28;;;;;;;3.20;2.90;;;16.80;48.00;17.80;101520.00;;;;4911452;28;23209;-50
2022/05/01 07:33:54;;;;;;;3.17;2.83;;;16.80;48.10;17.80;101526.00;;;;5005627;28;20226;-46
2022/05/01 07:36:20;;;;;;;2.90;2.70;;;16.90;48.30;17.80;101521.00;;;;5005781;28;20207;-46
2022/05/01 07:38:46;;;;;;;3.20;2.60;;;16.90;48.30;17.80;101520.00;;;;5005950;28;20429;-47
2022/05/01 07:41:12;;;;;;;2.77;2.57;;;16.80;48.30;17.80;101517.00;;;;5007333;28;20179;-47
2022/05/01 07:43:41;;;;;;;3.73;2.70;;;16.80;48.50;17.80;101516.00;;;;5004863;28;20199;-46
2022/05/01 07:46:07;;;;;;;4.17;3.00;;;16.80;48.50;17.80;101520.00;;;;5006527;28;20176;-46
2022/05/01 07:48:33;;;;;;;3.10;2.80;;;16.80;48.60;17.80;101513.00;;;;5006933;28;20191;-46
2022/05/01 07:50:58;;;;;;;4.03;2.80;;;16.80;48.60;17.80;101526.00;;;;5008802;28;20179;-47
2022/05/01 07:53:24;;;;;;;2.90;2.70;;;16.80;48.70;17.80;101516.00;;;;5017145;28;20270;-46
2022/05/01 07:55:50;;;;;;;3.97;2.70;;;16.80;48.70;17.80;101523.00;;;;5013781;28;20176;-46
2022/05/01 07:58:16;;;;;;;3.10;2.90;;;16.80;49.40;17.80;101528.00;;;;5008195;28;20183;-47
2022/05/01 08:00:41;;;;;;;2.83;2.63;;;16.80;48.80;17.80;101523.00;;;;5010631;28;20249;-46
2022/05/01 08:05:51;;;;;;;2.80;2.60;;;16.80;49.00;17.70;101519.00;;;;5026868;28;20170;-47
2022/05/01 08:08:17;;;;;;;2.90;2.70;;;16.80;48.80;17.70;101513.00;;;;5020753;28;20199;-47
2022/05/01 08:10:43;;;;;;;2.90;2.60;;;16.80;48.90;17.70;101510.00;;;;5006885;28;20651;-47
2022/05/01 08:13:08;;;;;;;2.80;2.60;;;16.80;49.00;17.70;101511.00;;;;5007127;28;20681;-46
2022/05/01 08:15:34;;;;;;;2.83;2.63;;;16.80;49.10;17.70;101518.00;;;;5006745;28;20210;-47
2022/05/01 08:23:28;;;;;;;4.77;2.80;;;16.80;50.00;17.70;101522.00;;;;5007007;28;20229;-47
2022/05/01 08:25:54;;;;;;;3.63;2.90;;;16.80;49.40;17.70;101511.00;;;;5006689;28;20795;-47
2022/05/01 08:28:19;;;;;;;5.37;3.00;;;16.80;49.80;17.70;101515.00;;;;5006953;28;20226;-47
2022/05/01 08:30:45;;;;;;;3.73;2.70;;;16.80;49.80;17.70;101509.00;;;;5004166;28;20230;-48
2022/05/01 08:33:11;;;;;;;3.60;2.77;;;16.80;49.80;17.80;101498.00;;;;4956742;28;20187;-47
2022/05/01 08:35:36;;;;;;;3.30;2.70;;;16.90;50.10;17.80;101507.00;;;;5019692;28;20238;-48
2022/05/01 08:38:02;;;;;;;4.73;2.57;;;16.90;50.10;17.70;101512.00;;;;5007348;28;20180;-46
2022/05/01 08:40:28;;;;;;;3.90;2.67;;;16.80;50.20;17.80;101512.00;;;;5006856;28;20186;-47
2022/05/01 08:42:53;;;;;;;4.27;2.77;;;16.80;50.40;17.80;101509.00;;;;5007387;28;20602;-48
2022/05/01 08:45:25;;;;;;;3.73;2.67;;;16.80;50.90;17.80;101507.00;;;;5010381;28;20175;-47
2022/05/01 08:48:04;;;;;;;3.63;2.80;;;16.80;50.20;17.80;101502.00;;;;5011038;28;20160;-47
2022/05/01 08:50:30;;;;;;;2.70;2.50;;;16.80;50.30;17.80;101505.00;;;;4990829;28;20222;-47
2022/05/01 08:52:56;;;;;;;7.83;2.80;;;16.80;50.50;17.80;101500.00;;;;4989442;28;20191;-47
2022/05/01 08:55:22;;;;;;;3.57;3.10;;;16.80;51.10;17.80;101503.00;;;;4988593;28;20649;-47
2022/05/01 08:57:47;;;;;;;7.20;2.83;;;16.80;51.40;17.70;101498.00;;;;5004853;28;20175;-47
2022/05/01 09:00:14;;;;;;;7.03;2.93;;;16.80;51.60;17.70;101495.00;;;;4988968;28;20848;-48
2022/05/01 09:02:41;;;;;;;7.63;2.77;;;16.80;51.60;17.70;101503.00;;;;5006323;28;20215;-47
2022/05/01 09:05:07;;;;;;;4.87;2.90;;;16.80;51.90;17.70;101501.00;;;;5005316;28;20675;-46
2022/05/01 09:07:33;;;;;;;3.90;2.80;;;16.80;51.60;17.70;101512.00;;;;5014894;28;20233;-47
2022/05/01 09:09:59;;;;;;;5.63;2.80;;;16.80;51.50;17.70;101502.00;;;;5024034;28;20217;-49
2022/05/01 09:15:11;;;;;;;5.77;2.80;;;16.80;51.60;17.70;101507.00;;;;5025453;28;20242;-46
2022/05/01 09:17:37;;;;;;;3.57;2.47;;;16.80;51.50;17.70;101500.00;;;;5025403;28;20155;-49
2022/05/01 09:20:09;;;;;;;3.60;2.70;;;16.80;51.60;17.70;101510.00;;;;5025364;28;20555;-47
2022/05/01 09:22:51;;;;;;;4.67;2.50;;;16.80;51.60;17.70;101505.00;;;;5025354;28;20178;-46
2022/05/01 09:25:19;;;;;;;4.27;2.60;;;16.80;51.70;17.70;101504.00;;;;5025044;28;20166;-48
2022/05/01 09:27:45;;;;;;;3.60;2.60;;;16.80;51.70;17.70;101502.00;;;;5025173;28;20277;-47
2022/05/01 09:30:16;;;;;;;2.80;2.60;;;16.80;51.60;17.70;101502.00;;;;5025409;28;20262;-47
2022/05/01 09:32:42;;;;;;;3.00;2.70;;;16.80;51.70;17.70;101499.00;;;;5025744;28;20241;-48
2022/05/01 09:35:14;;;;;;;4.80;2.50;;;16.80;51.70;17.70;101493.00;;;;5025248;28;20177;-47
2022/05/01 09:37:39;;;;;;;4.10;2.67;;;16.80;51.60;17.70;101503.00;;;;5027946;28;20155;-48
2022/05/01 09:40:05;;;;;;;5.60;3.10;;;16.80;51.50;17.70;101498.00;;;;5028967;28;20199;-47
2022/05/01 09:42:34;;;;;;;4.53;2.60;;;16.90;51.60;17.80;101505.00;;;;5027186;28;20645;-47
2022/05/01 09:45:14;;;;;;;3.43;2.70;;;16.90;51.60;17.70;101507.00;;;;5025259;28;20194;-46
2022/05/01 09:47:44;;;;;;;4.17;2.60;;;16.90;51.60;17.80;101507.00;;;;5024147;28;20178;-47
2022/05/01 09:50:12;;;;;;;2.60;2.40;;;16.90;51.50;17.80;101507.00;;;;5025563;28;20210;-47
2022/05/01 09:53:01;;;;;;;3.00;2.70;;;16.90;51.60;17.80;101502.00;;;;5025320;28;20256;-46
2022/05/01 09:55:28;;;;;;;2.70;2.50;;;16.90;51.60;17.80;101504.00;;;;5029138;28;20242;-47
2022/05/01 09:58:03;;;;;;;2.43;2.23;;;16.90;51.40;17.80;101507.00;;;;5029002;28;20186;-47
2022/05/01 10:00:45;;;;;;;3.00;2.50;;;16.90;51.50;17.80;101498.00;;;;5028863;28;20497;-47
2022/05/01 10:03:31;;;;;;;3.83;2.23;;;16.90;51.40;17.80;101509.00;;;;5029171;28;20561;-47
2022/05/01 10:05:58;;;;;;;2.70;2.30;;;17.00;51.50;17.90;101504.00;;;;5028931;28;20167;-48
2022/05/01 10:08:24;;;;;;;2.77;2.50;;;17.00;51.60;17.90;101496.00;;;;5028587;28;20191;-48
2022/05/01 10:10:57;;;;;;;3.63;2.53;;;17.00;51.50;17.90;101501.00;;;;5029137;28;20171;-49
2022/05/01 10:13:23;;;;;;;3.47;2.07;;;17.00;51.50;17.90;101495.00;;;;5027386;28;20361;-47
2022/05/01 10:15:49;;;;;;;2.60;2.30;;;17.00;51.50;17.90;101501.00;;;;5027679;28;20865;-47
2022/05/01 10:18:15;;;;;;;2.63;2.37;;;17.00;51.40;17.90;101498.00;;;;5010993;28;20167;-46
2022/05/01 10:20:42;;;;;;;3.30;2.50;;;17.00;51.50;17.90;101494.00;;;;5029015;28;20374;-48
2022/05/01 10:23:07;;;;;;;2.87;2.47;;;17.00;51.40;18.00;101489.00;;;;5028621;28;20217;-48
2022/05/01 10:25:37;;;;;;;2.60;2.40;;;17.10;51.40;18.00;101498.00;;;;5010385;28;20179;-48
2022/05/01 10:28:18;;;;;;;2.50;2.30;;;17.10;51.40;18.00;101497.00;;;;5027255;28;20179;-48
2022/05/01 10:34:38;;;;;;;2.53;2.30;;;17.10;51.40;18.00;101484.00;;;;5027379;28;20205;-48
2022/05/01 10:37:49;;;;;;;2.50;2.30;;;17.10;51.50;18.00;101480.00;;;;5028154;28;20179;-47
2022/05/01 10:40:15;;;;;;;2.67;2.47;;;17.10;51.40;18.00;101477.00;;;;5028327;28;20177;-48
2022/05/01 10:42:49;;;;;;;2.50;2.30;;;17.20;51.50;18.00;101477.00;;;;5010587;28;20171;-47
2022/05/01 10:45:21;;;;;;;2.60;2.40;;;17.20;51.60;18.10;101486.00;;;;5028222;28;20158;-46
2022/05/01 10:47:47;;;;;;;2.93;2.23;;;17.20;51.70;18.10;101479.00;;;;5027903;28;20689;-48
2022/05/01 10:50:26;;;;;;;3.10;2.40;;;17.20;51.60;18.10;101475.00;;;;5026502;28;20164;-47
2022/05/01 10:53:09;;;;;;;2.57;2.37;;;17.20;51.60;18.10;101471.00;;;;5026654;28;20153;-47
2022/05/01 10:55:53;;;;;;;2.47;2.27;;;17.20;51.60;18.10;101460.00;;;;5026519;28;20301;-47
2022/05/01 10:58:22;;;;;;;2.53;2.30;;;17.20;51.60;18.20;101454.00;;;;5028808;28;20151;-47
2022/05/01 11:00:50;;;;;;;2.47;2.27;;;17.30;51.60;18.20;101450.00;;;;5027779;28;20194;-47
2022/05/01 11:03:32;;;;;;;2.50;2.30;;;17.30;51.60;18.20;101442.00;;;;5027770;28;20191;-48
2022/05/01 11:06:04;;;;;;;2.23;2.13;;;17.30;51.50;18.20;101448.00;;;;5026361;28;20658;-48
2022/05/01 11:08:36;;;;;;;2.40;2.10;;;17.30;51.50;18.20;101450.00;;;;5028068;28;20384;-48
2022/05/01 11:11:05;;;;;;;4.20;2.50;;;17.30;51.60;18.20;101443.00;;;;5028058;28;20170;-47
2022/05/01 11:13:32;;;;;;;5.23;2.40;;;17.30;52.30;18.30;101442.00;;;;5026704;28;20191;-48
2022/05/01 11:15:58;;;;;;;2.30;2.20;;;17.40;51.80;18.30;101444.00;;;;5027115;28;20178;-47